Forside
METAR-TAF:

METAR-TAF

Lufthavne :

Chatham-Kent Municipal Airport

Chatham-Kent, Ontario, Canada

Breddekreds: 42-18-22N, længdekreds: 82-04-54W, højde: 197 m

Aktuelle vejr

Denne rapport blev lavet for 31 minutter siden, kl. 18:00 UTC
Vind 17 kt fra sydsydvest med vindstød på up til 23 kt
Temperatur 6°C
Fugtighed 56%
Tryk 1016 hPa
Sigt: 14.5 km
skyfri

METAR: CYCK 231800Z AUTO 21017G23KT 9SM CLR 06/M02 A2999 RMK SLP165

Tid: 13:31 (18:31 UTC)


TAF: fraværende

Vejrobservationer og prognoser fra mere end 4000 lufthavne (METAR og TAF).

De gule og røde prikker repræsenterer de meteorologiske stationer.

Flyt musen over at se navnet på stationen.

Så klik over at se vejr observationer og prognoser.

At skifte det kort: Klik på de grønne knapper med et sort kors for at zoome ind; på den grønne knap med en bindestreg for at zoome ud; eller på de grønne pile for tilstødende kort.


METAR-TAF: